Plamondon, Canada
Current Conditions -  °F | °C
As of 10:00 PM on Monday 20 Oct 2014 (Local Time) from CYOD Reporting Station
Few Clouds Few Clouds  
Wind Chill: 50°   Ceiling: Unl
Heat Index: 50°   Visibility: 15mi
Dew Point: 37°   Wind: 5mph
Humidity: 62%   Direction: 140°SE
Pressure: 29.52"   Gusts: NA
Location:  54.85°N, 112.34°W
Report Text: CYOD 210400Z 14004KT 15SM FEW240 10/03 A2952 RMK CI1 SLP010
Loading
Personal Weather Stations






























Interactive Weather Map
Tropical Storm Tracking
New forecast layout! Learn more

10-Day Weather Forecast

Advertisements
Track Severe Weather on mobile